AYPY/POM METAR and TAF weather

Enter ICAO airport designator
Station Type Date Time Source
AYPY METAR 2022/01/29 10:00 UTC NOAA

AYPY 291000Z 27010KT 9999 FEW015 SCT040 OVC150 27/25 Q1008=


Station Type Date Time Source
AYPY Decoded METAR 2022/01/29 10:00 UTC NOAA

Moresby, Papua New Guinea (AYPY) 09-26S 147-13E 49M
Jan 29, 2022 - 05:00 AM EST / 2022.01.29 1000 UTC
Wind: from the W (270 degrees) at 12 MPH (10 KT):0
Visibility: greater than 7 mile(s):0
Sky conditions: overcast
Temperature: 80 F (27 C)
Dew Point: 77 F (25 C)
Relative Humidity: 88%
Pressure (altimeter): 29.77 in. Hg (1008 hPa)
ob: AYPY 291000Z 27010KT 9999 FEW015 SCT040 OVC150 27/25 Q1008=
cycle: 10

Station Type Date Time Source
AYPY TAF 2022/01/29 06:24 UTC NOAA

TAF TAF AYPY 290245Z 2906/3006 32015KT 9999 -SHRA SCT018 FEW018CB
FM291500 VRB03KT 9999 5000 SCT020 PROB30 2919/2921 00000KT 0600 FG

Example: see airport list